sensor_id;sensor_type;location;lat;lon;timestamp;P1;durP1;ratioP1;P2;durP2;ratioP2
64966;SDS011;51710;38.732;-121.358;2022-10-30T00:01:02;2.13;;;1.15;;
64966;SDS011;51710;38.732;-121.358;2022-10-30T00:03:29;2.15;;;1.10;;
64966;SDS011;51710;38.732;-121.358;2022-10-30T00:05:55;4.40;;;1.30;;
64966;SDS011;51710;38.732;-121.358;2022-10-30T00:08:22;7.15;;;1.13;;
64966;SDS011;51710;38.732;-121.358;2022-10-30T00:10:51;7.45;;;1.25;;
64966;SDS011;51710;38.732;-121.358;2022-10-30T00:13:19;4.90;;;1.27;;
64966;SDS011;51710;38.732;-121.358;2022-10-30T00:15:50;4.03;;;1.05;;
64966;SDS011;51710;38.732;-121.358;2022-10-30T00:18:18;4.50;;;1.40;;
64966;SDS011;51710;38.732;-121.358;2022-10-30T00:20:45;3.22;;;1.08;;
64966;SDS011;51710;38.732;-121.358;2022-10-30T00:23:12;3.47;;;1.33;;
64966;SDS011;51710;38.732;-121.358;2022-10-30T00:25:39;6.68;;;1.25;;
64966;SDS011;51710;38.732;-121.358;2022-10-30T00:28:05;2.97;;;1.30;;
64966;SDS011;51710;38.732;-121.358;2022-10-30T00:30:33;2.95;;;1.40;;
64966;SDS011;51710;38.732;-121.358;2022-10-30T00:33:00;5.90;;;1.35;;
64966;SDS011;51710;38.732;-121.358;2022-10-30T00:35:27;4.80;;;1.48;;
64966;SDS011;51710;38.732;-121.358;2022-10-30T00:37:54;4.47;;;1.25;;
64966;SDS011;51710;38.732;-121.358;2022-10-30T00:40:20;3.45;;;1.38;;
64966;SDS011;51710;38.732;-121.358;2022-10-30T00:42:47;3.05;;;1.00;;
64966;SDS011;51710;38.732;-121.358;2022-10-30T00:45:14;3.47;;;0.90;;
64966;SDS011;51710;38.732;-121.358;2022-10-30T00:47:45;3.05;;;1.00;;
64966;SDS011;51710;38.732;-121.358;2022-10-30T00:50:27;5.13;;;1.58;;
64966;SDS011;51710;38.732;-121.358;2022-10-30T00:53:02;3.60;;;1.15;;
64966;SDS011;51710;38.732;-121.358;2022-10-30T00:55:43;2.78;;;1.00;;
64966;SDS011;51710;38.732;-121.358;2022-10-30T00:58:18;2.20;;;1.00;;
64966;SDS011;51710;38.732;-121.358;2022-10-30T01:00:50;7.38;;;1.27;;
64966;SDS011;51710;38.732;-121.358;2022-10-30T01:03:20;2.28;;;1.02;;
64966;SDS011;51710;38.732;-121.358;2022-10-30T01:05:48;3.10;;;1.17;;
64966;SDS011;51710;38.732;-121.358;2022-10-30T01:08:21;3.78;;;1.15;;
64966;SDS011;51710;38.732;-121.358;2022-10-30T01:10:48;6.72;;;1.55;;
64966;SDS011;51710;38.732;-121.358;2022-10-30T01:13:15;6.32;;;1.48;;
64966;SDS011;51710;38.732;-121.358;2022-10-30T01:15:53;2.25;;;0.98;;
64966;SDS011;51710;38.732;-121.358;2022-10-30T01:18:39;5.18;;;1.00;;
64966;SDS011;51710;38.732;-121.358;2022-10-30T01:21:36;2.88;;;1.45;;
64966;SDS011;51710;38.732;-121.358;2022-10-30T01:27:31;3.05;;;1.20;;
64966;SDS011;51710;38.732;-121.358;2022-10-30T01:35:47;5.10;;;1.40;;
64966;SDS011;51710;38.732;-121.358;2022-10-30T01:38:34;6.90;;;1.85;;
64966;SDS011;51710;38.732;-121.358;2022-10-30T01:41:02;9.90;;;3.95;;
64966;SDS011;51710;38.732;-121.358;2022-10-30T01:43:28;10.13;;;4.68;;
64966;SDS011;51710;38.732;-121.358;2022-10-30T01:48:37;11.57;;;3.80;;
64966;SDS011;51710;38.732;-121.358;2022-10-30T01:51:16;7.95;;;2.53;;
64966;SDS011;51710;38.732;-121.358;2022-10-30T01:59:28;5.50;;;1.60;;
64966;SDS011;51710;38.732;-121.358;2022-10-30T02:02:01;5.70;;;1.83;;
64966;SDS011;51710;38.732;-121.358;2022-10-30T02:04:28;6.40;;;1.50;;
64966;SDS011;51710;38.732;-121.358;2022-10-30T02:06:55;6.82;;;1.30;;
64966;SDS011;51710;38.732;-121.358;2022-10-30T02:09:21;3.67;;;1.30;;
64966;SDS011;51710;38.732;-121.358;2022-10-30T02:11:48;5.30;;;1.50;;
64966;SDS011;51710;38.732;-121.358;2022-10-30T02:14:26;2.90;;;1.27;;
64966;SDS011;51710;38.732;-121.358;2022-10-30T02:16:59;4.70;;;1.20;;
64966;SDS011;51710;38.732;-121.358;2022-10-30T02:19:28;9.48;;;2.08;;
64966;SDS011;51710;38.732;-121.358;2022-10-30T02:21:55;5.13;;;1.90;;
64966;SDS011;51710;38.732;-121.358;2022-10-30T02:24:21;2.22;;;1.45;;
64966;SDS011;51710;38.732;-121.358;2022-10-30T02:26:48;6.13;;;1.65;;
64966;SDS011;51710;38.732;-121.358;2022-10-30T02:29:14;9.10;;;2.30;;
64966;SDS011;51710;38.732;-121.358;2022-10-30T02:31:45;11.05;;;3.42;;
64966;SDS011;51710;38.732;-121.358;2022-10-30T02:34:11;9.00;;;2.60;;
64966;SDS011;51710;38.732;-121.358;2022-10-30T02:36:38;6.60;;;2.00;;
64966;SDS011;51710;38.732;-121.358;2022-10-30T02:39:04;4.70;;;2.65;;
64966;SDS011;51710;38.732;-121.358;2022-10-30T02:41:31;7.22;;;2.55;;
64966;SDS011;51710;38.732;-121.358;2022-10-30T02:43:58;8.98;;;2.60;;
64966;SDS011;51710;38.732;-121.358;2022-10-30T02:46:24;5.50;;;2.08;;
64966;SDS011;51710;38.732;-121.358;2022-10-30T02:48:50;4.22;;;1.85;;
64966;SDS011;51710;38.732;-121.358;2022-10-30T02:51:17;6.85;;;2.67;;
64966;SDS011;51710;38.732;-121.358;2022-10-30T02:53:44;8.02;;;4.32;;
64966;SDS011;51710;38.732;-121.358;2022-10-30T02:56:12;9.70;;;4.38;;
64966;SDS011;51710;38.732;-121.358;2022-10-30T02:58:39;12.07;;;3.20;;
64966;SDS011;51710;38.732;-121.358;2022-10-30T03:01:10;14.57;;;3.67;;
64966;SDS011;51710;38.732;-121.358;2022-10-30T03:03:39;11.43;;;3.75;;
64966;SDS011;51710;38.732;-121.358;2022-10-30T03:06:07;10.50;;;3.03;;
64966;SDS011;51710;38.732;-121.358;2022-10-30T03:08:35;8.02;;;3.42;;
64966;SDS011;51710;38.732;-121.358;2022-10-30T03:11:03;9.52;;;4.22;;
64966;SDS011;51710;38.732;-121.358;2022-10-30T03:13:35;9.95;;;3.92;;
64966;SDS011;51710;38.732;-121.358;2022-10-30T03:16:08;10.05;;;3.75;;
64966;SDS011;51710;38.732;-121.358;2022-10-30T03:18:37;10.10;;;3.72;;
64966;SDS011;51710;38.732;-121.358;2022-10-30T03:21:05;10.18;;;3.40;;
64966;SDS011;51710;38.732;-121.358;2022-10-30T03:23:33;7.03;;;3.42;;
64966;SDS011;51710;38.732;-121.358;2022-10-30T03:26:00;10.50;;;3.58;;
64966;SDS011;51710;38.732;-121.358;2022-10-30T03:28:27;12.13;;;3.97;;
64966;SDS011;51710;38.732;-121.358;2022-10-30T03:30:59;13.05;;;4.15;;
64966;SDS011;51710;38.732;-121.358;2022-10-30T03:33:30;8.40;;;3.47;;
64966;SDS011;51710;38.732;-121.358;2022-10-30T03:35:57;12.13;;;3.70;;
64966;SDS011;51710;38.732;-121.358;2022-10-30T03:38:24;9.80;;;4.38;;
64966;SDS011;51710;38.732;-121.358;2022-10-30T03:40:51;11.07;;;4.18;;
64966;SDS011;51710;38.732;-121.358;2022-10-30T03:43:18;8.73;;;3.80;;
64966;SDS011;51710;38.732;-121.358;2022-10-30T03:45:46;14.65;;;4.47;;
64966;SDS011;51710;38.732;-121.358;2022-10-30T03:48:15;12.68;;;4.55;;
64966;SDS011;51710;38.732;-121.358;2022-10-30T03:50:42;11.20;;;4.75;;
64966;SDS011;51710;38.732;-121.358;2022-10-30T03:53:09;19.27;;;5.75;;
64966;SDS011;51710;38.732;-121.358;2022-10-30T03:55:36;27.48;;;7.03;;
64966;SDS011;51710;38.732;-121.358;2022-10-30T03:58:02;11.98;;;4.90;;
64966;SDS011;51710;38.732;-121.358;2022-10-30T04:00:29;19.60;;;6.93;;
64966;SDS011;51710;38.732;-121.358;2022-10-30T04:02:56;26.70;;;6.85;;
64966;SDS011;51710;38.732;-121.358;2022-10-30T04:05:23;19.15;;;5.47;;
64966;SDS011;51710;38.732;-121.358;2022-10-30T04:07:57;15.65;;;6.38;;
64966;SDS011;51710;38.732;-121.358;2022-10-30T04:10:25;29.30;;;6.53;;
64966;SDS011;51710;38.732;-121.358;2022-10-30T04:12:52;26.95;;;7.53;;
64966;SDS011;51710;38.732;-121.358;2022-10-30T04:15:24;23.30;;;7.47;;
64966;SDS011;51710;38.732;-121.358;2022-10-30T04:17:50;18.23;;;8.05;;
64966;SDS011;51710;38.732;-121.358;2022-10-30T04:20:17;22.70;;;8.25;;
64966;SDS011;51710;38.732;-121.358;2022-10-30T04:22:44;33.03;;;10.88;;
64966;SDS011;51710;38.732;-121.358;2022-10-30T04:25:11;23.00;;;8.48;;
64966;SDS011;51710;38.732;-121.358;2022-10-30T04:27:41;18.58;;;8.48;;
64966;SDS011;51710;38.732;-121.358;2022-10-30T04:30:09;19.08;;;6.13;;
64966;SDS011;51710;38.732;-121.358;2022-10-30T04:32:44;19.15;;;6.55;;
64966;SDS011;51710;38.732;-121.358;2022-10-30T04:35:12;13.90;;;5.07;;
64966;SDS011;51710;38.732;-121.358;2022-10-30T04:37:39;18.52;;;7.60;;
64966;SDS011;51710;38.732;-121.358;2022-10-30T04:40:06;19.30;;;7.25;;
64966;SDS011;51710;38.732;-121.358;2022-10-30T04:42:33;15.35;;;6.97;;
64966;SDS011;51710;38.732;-121.358;2022-10-30T04:44:59;17.40;;;7.32;;
64966;SDS011;51710;38.732;-121.358;2022-10-30T04:47:27;16.63;;;6.63;;
64966;SDS011;51710;38.732;-121.358;2022-10-30T04:49:55;17.42;;;6.97;;
64966;SDS011;51710;38.732;-121.358;2022-10-30T04:52:21;13.90;;;6.50;;
64966;SDS011;51710;38.732;-121.358;2022-10-30T04:54:47;15.23;;;6.50;;
64966;SDS011;51710;38.732;-121.358;2022-10-30T04:57:14;12.75;;;6.65;;
64966;SDS011;51710;38.732;-121.358;2022-10-30T04:59:40;19.80;;;6.97;;
64966;SDS011;51710;38.732;-121.358;2022-10-30T05:02:06;22.23;;;8.35;;
64966;SDS011;51710;38.732;-121.358;2022-10-30T05:04:33;18.00;;;8.00;;
64966;SDS011;51710;38.732;-121.358;2022-10-30T05:06:59;25.17;;;9.55;;
64966;SDS011;51710;38.732;-121.358;2022-10-30T05:09:28;22.95;;;8.85;;
64966;SDS011;51710;38.732;-121.358;2022-10-30T05:11:55;18.15;;;8.52;;
64966;SDS011;51710;38.732;-121.358;2022-10-30T05:14:21;17.70;;;8.30;;
64966;SDS011;51710;38.732;-121.358;2022-10-30T05:16:47;19.77;;;8.10;;
64966;SDS011;51710;38.732;-121.358;2022-10-30T05:19:13;15.68;;;7.22;;
64966;SDS011;51710;38.732;-121.358;2022-10-30T05:21:40;14.85;;;7.53;;
64966;SDS011;51710;38.732;-121.358;2022-10-30T05:24:06;16.08;;;7.90;;
64966;SDS011;51710;38.732;-121.358;2022-10-30T05:26:33;23.60;;;8.23;;
64966;SDS011;51710;38.732;-121.358;2022-10-30T05:28:59;31.35;;;8.20;;
64966;SDS011;51710;38.732;-121.358;2022-10-30T05:31:26;19.52;;;7.43;;
64966;SDS011;51710;38.732;-121.358;2022-10-30T05:33:52;21.75;;;7.85;;
64966;SDS011;51710;38.732;-121.358;2022-10-30T05:36:18;28.23;;;7.90;;
64966;SDS011;51710;38.732;-121.358;2022-10-30T05:38:45;21.08;;;7.70;;
64966;SDS011;51710;38.732;-121.358;2022-10-30T05:41:11;33.50;;;9.07;;
64966;SDS011;51710;38.732;-121.358;2022-10-30T05:43:38;16.08;;;8.25;;
64966;SDS011;51710;38.732;-121.358;2022-10-30T05:46:04;16.60;;;7.35;;
64966;SDS011;51710;38.732;-121.358;2022-10-30T05:48:31;19.45;;;8.25;;
64966;SDS011;51710;38.732;-121.358;2022-10-30T05:50:58;15.40;;;7.57;;
64966;SDS011;51710;38.732;-121.358;2022-10-30T05:53:24;17.80;;;6.70;;
64966;SDS011;51710;38.732;-121.358;2022-10-30T05:55:54;17.33;;;6.97;;
64966;SDS011;51710;38.732;-121.358;2022-10-30T05:58:22;23.63;;;8.35;;
64966;SDS011;51710;38.732;-121.358;2022-10-30T06:00:49;14.63;;;7.13;;
64966;SDS011;51710;38.732;-121.358;2022-10-30T06:03:15;17.33;;;6.78;;
64966;SDS011;51710;38.732;-121.358;2022-10-30T06:05:43;14.45;;;6.82;;
64966;SDS011;51710;38.732;-121.358;2022-10-30T06:08:10;15.10;;;7.00;;
64966;SDS011;51710;38.732;-121.358;2022-10-30T06:10:37;18.15;;;7.38;;
64966;SDS011;51710;38.732;-121.358;2022-10-30T06:13:04;14.77;;;6.18;;
64966;SDS011;51710;38.732;-121.358;2022-10-30T06:15:31;14.02;;;6.38;;
64966;SDS011;51710;38.732;-121.358;2022-10-30T06:17:58;13.18;;;6.13;;
64966;SDS011;51710;38.732;-121.358;2022-10-30T06:20:26;16.67;;;6.45;;
64966;SDS011;51710;38.732;-121.358;2022-10-30T06:22:54;13.48;;;6.15;;
64966;SDS011;51710;38.732;-121.358;2022-10-30T06:25:20;16.90;;;6.50;;
64966;SDS011;51710;38.732;-121.358;2022-10-30T06:27:47;9.95;;;4.88;;
64966;SDS011;51710;38.732;-121.358;2022-10-30T06:30:13;12.35;;;5.75;;
64966;SDS011;51710;38.732;-121.358;2022-10-30T06:32:40;11.88;;;4.90;;
64966;SDS011;51710;38.732;-121.358;2022-10-30T06:35:06;11.07;;;4.43;;
64966;SDS011;51710;38.732;-121.358;2022-10-30T06:37:33;12.02;;;4.90;;
64966;SDS011;51710;38.732;-121.358;2022-10-30T06:39:59;11.85;;;5.75;;
64966;SDS011;51710;38.732;-121.358;2022-10-30T06:42:26;9.75;;;5.35;;
64966;SDS011;51710;38.732;-121.358;2022-10-30T06:44:52;16.65;;;5.85;;
64966;SDS011;51710;38.732;-121.358;2022-10-30T06:47:19;15.05;;;6.03;;
64966;SDS011;51710;38.732;-121.358;2022-10-30T06:49:45;16.30;;;5.70;;
64966;SDS011;51710;38.732;-121.358;2022-10-30T06:52:14;12.38;;;5.47;;
64966;SDS011;51710;38.732;-121.358;2022-10-30T06:54:41;13.27;;;4.85;;
64966;SDS011;51710;38.732;-121.358;2022-10-30T06:57:07;14.05;;;4.45;;
64966;SDS011;51710;38.732;-121.358;2022-10-30T06:59:34;13.23;;;6.10;;
64966;SDS011;51710;38.732;-121.358;2022-10-30T07:02:00;14.23;;;5.25;;
64966;SDS011;51710;38.732;-121.358;2022-10-30T07:04:26;13.73;;;4.45;;
64966;SDS011;51710;38.732;-121.358;2022-10-30T07:06:52;17.95;;;5.10;;
64966;SDS011;51710;38.732;-121.358;2022-10-30T07:09:19;11.38;;;4.35;;
64966;SDS011;51710;38.732;-121.358;2022-10-30T07:11:45;11.07;;;4.40;;
64966;SDS011;51710;38.732;-121.358;2022-10-30T07:14:11;15.15;;;4.70;;
64966;SDS011;51710;38.732;-121.358;2022-10-30T07:16:38;13.02;;;5.13;;
64966;SDS011;51710;38.732;-121.358;2022-10-30T07:19:04;11.55;;;5.63;;
64966;SDS011;51710;38.732;-121.358;2022-10-30T07:21:30;15.35;;;6.07;;
64966;SDS011;51710;38.732;-121.358;2022-10-30T07:23:57;12.23;;;5.25;;
64966;SDS011;51710;38.732;-121.358;2022-10-30T07:26:23;10.88;;;4.95;;
64966;SDS011;51710;38.732;-121.358;2022-10-30T07:28:50;14.23;;;5.47;;
64966;SDS011;51710;38.732;-121.358;2022-10-30T07:31:16;13.65;;;4.57;;
64966;SDS011;51710;38.732;-121.358;2022-10-30T07:33:43;12.23;;;4.93;;
64966;SDS011;51710;38.732;-121.358;2022-10-30T07:36:09;11.88;;;4.40;;
64966;SDS011;51710;38.732;-121.358;2022-10-30T07:38:37;16.30;;;4.70;;
64966;SDS011;51710;38.732;-121.358;2022-10-30T07:41:03;12.82;;;4.57;;
64966;SDS011;51710;38.732;-121.358;2022-10-30T07:43:30;13.23;;;3.88;;
64966;SDS011;51710;38.732;-121.358;2022-10-30T07:45:56;15.85;;;4.03;;
64966;SDS011;51710;38.732;-121.358;2022-10-30T07:48:22;11.00;;;4.50;;
64966;SDS011;51710;38.732;-121.358;2022-10-30T07:50:49;9.02;;;3.50;;
64966;SDS011;51710;38.732;-121.358;2022-10-30T07:53:15;12.13;;;4.35;;
64966;SDS011;51710;38.732;-121.358;2022-10-30T07:55:42;10.80;;;4.07;;
64966;SDS011;51710;38.732;-121.358;2022-10-30T07:58:08;10.18;;;4.03;;
64966;SDS011;51710;38.732;-121.358;2022-10-30T08:00:34;9.20;;;3.13;;
64966;SDS011;51710;38.732;-121.358;2022-10-30T08:03:01;12.25;;;3.90;;
64966;SDS011;51710;38.732;-121.358;2022-10-30T08:05:27;9.50;;;3.20;;
64966;SDS011;51710;38.732;-121.358;2022-10-30T08:07:53;7.28;;;3.08;;
64966;SDS011;51710;38.732;-121.358;2022-10-30T08:10:20;6.15;;;3.20;;
64966;SDS011;51710;38.732;-121.358;2022-10-30T08:12:46;5.90;;;3.28;;
64966;SDS011;51710;38.732;-121.358;2022-10-30T08:15:13;5.65;;;2.55;;
64966;SDS011;51710;38.732;-121.358;2022-10-30T08:17:46;9.07;;;3.00;;
64966;SDS011;51710;38.732;-121.358;2022-10-30T08:20:14;8.30;;;2.60;;
64966;SDS011;51710;38.732;-121.358;2022-10-30T08:25:16;8.50;;;2.95;;
64966;SDS011;51710;38.732;-121.358;2022-10-30T08:27:53;5.85;;;2.50;;
64966;SDS011;51710;38.732;-121.358;2022-10-30T08:30:22;6.95;;;2.78;;
64966;SDS011;51710;38.732;-121.358;2022-10-30T08:32:50;7.10;;;2.20;;
64966;SDS011;51710;38.732;-121.358;2022-10-30T08:35:16;9.15;;;2.58;;
64966;SDS011;51710;38.732;-121.358;2022-10-30T08:37:43;6.70;;;2.45;;
64966;SDS011;51710;38.732;-121.358;2022-10-30T08:40:09;4.72;;;2.20;;
64966;SDS011;51710;38.732;-121.358;2022-10-30T08:42:36;9.63;;;2.13;;
64966;SDS011;51710;38.732;-121.358;2022-10-30T08:45:03;8.02;;;2.22;;
64966;SDS011;51710;38.732;-121.358;2022-10-30T08:47:30;6.80;;;2.30;;
64966;SDS011;51710;38.732;-121.358;2022-10-30T08:49:56;7.43;;;2.78;;
64966;SDS011;51710;38.732;-121.358;2022-10-30T08:52:23;6.05;;;2.45;;
64966;SDS011;51710;38.732;-121.358;2022-10-30T08:54:49;6.63;;;2.50;;
64966;SDS011;51710;38.732;-121.358;2022-10-30T08:57:15;5.05;;;2.40;;
64966;SDS011;51710;38.732;-121.358;2022-10-30T08:59:42;7.63;;;2.42;;
64966;SDS011;51710;38.732;-121.358;2022-10-30T09:02:08;7.07;;;2.40;;
64966;SDS011;51710;38.732;-121.358;2022-10-30T09:04:34;4.97;;;2.00;;
64966;SDS011;51710;38.732;-121.358;2022-10-30T09:07:01;4.10;;;2.25;;
64966;SDS011;51710;38.732;-121.358;2022-10-30T09:09:27;6.70;;;2.20;;
64966;SDS011;51710;38.732;-121.358;2022-10-30T09:11:54;6.80;;;2.08;;
64966;SDS011;51710;38.732;-121.358;2022-10-30T09:14:20;9.10;;;2.30;;
64966;SDS011;51710;38.732;-121.358;2022-10-30T09:16:46;5.60;;;2.40;;
64966;SDS011;51710;38.732;-121.358;2022-10-30T09:19:12;7.53;;;2.30;;
64966;SDS011;51710;38.732;-121.358;2022-10-30T09:21:39;8.20;;;2.25;;
64966;SDS011;51710;38.732;-121.358;2022-10-30T09:24:05;5.45;;;2.10;;
64966;SDS011;51710;38.732;-121.358;2022-10-30T09:26:32;6.63;;;2.15;;
64966;SDS011;51710;38.732;-121.358;2022-10-30T09:28:58;6.45;;;2.53;;
64966;SDS011;51710;38.732;-121.358;2022-10-30T09:31:24;7.90;;;2.05;;
64966;SDS011;51710;38.732;-121.358;2022-10-30T09:33:51;6.63;;;2.42;;
64966;SDS011;51710;38.732;-121.358;2022-10-30T09:36:17;7.45;;;2.30;;
64966;SDS011;51710;38.732;-121.358;2022-10-30T09:38:43;5.03;;;1.73;;
64966;SDS011;51710;38.732;-121.358;2022-10-30T09:44:01;6.32;;;1.98;;
64966;SDS011;51710;38.732;-121.358;2022-10-30T09:54:44;4.80;;;1.75;;
64966;SDS011;51710;38.732;-121.358;2022-10-30T10:00:17;8.10;;;2.50;;
64966;SDS011;51710;38.732;-121.358;2022-10-30T10:03:07;5.20;;;2.60;;
64966;SDS011;51710;38.732;-121.358;2022-10-30T10:05:49;7.32;;;2.38;;
64966;SDS011;51710;38.732;-121.358;2022-10-30T10:08:21;5.55;;;2.30;;
64966;SDS011;51710;38.732;-121.358;2022-10-30T10:10:58;7.03;;;1.80;;
64966;SDS011;51710;38.732;-121.358;2022-10-30T10:16:14;4.28;;;1.65;;
64966;SDS011;51710;38.732;-121.358;2022-10-30T10:21:44;10.85;;;2.05;;
64966;SDS011;51710;38.732;-121.358;2022-10-30T10:29:36;4.88;;;1.85;;
64966;SDS011;51710;38.732;-121.358;2022-10-30T10:32:39;7.30;;;2.60;;
64966;SDS011;51710;38.732;-121.358;2022-10-30T10:35:32;6.57;;;1.80;;
64966;SDS011;51710;38.732;-121.358;2022-10-30T10:38:21;9.75;;;2.47;;
64966;SDS011;51710;38.732;-121.358;2022-10-30T10:46:42;7.20;;;2.00;;
64966;SDS011;51710;38.732;-121.358;2022-10-30T10:51:48;7.57;;;2.15;;
64966;SDS011;51710;38.732;-121.358;2022-10-30T10:54:21;7.90;;;1.90;;
64966;SDS011;51710;38.732;-121.358;2022-10-30T10:56:50;4.53;;;1.70;;
64966;SDS011;51710;38.732;-121.358;2022-10-30T11:05:04;5.35;;;1.90;;
64966;SDS011;51710;38.732;-121.358;2022-10-30T11:07:52;4.78;;;2.03;;
64966;SDS011;51710;38.732;-121.358;2022-10-30T11:10:22;7.28;;;2.00;;
64966;SDS011;51710;38.732;-121.358;2022-10-30T11:12:50;5.32;;;2.00;;
64966;SDS011;51710;38.732;-121.358;2022-10-30T11:18:04;9.05;;;1.80;;
64966;SDS011;51710;38.732;-121.358;2022-10-30T11:25:59;4.30;;;1.65;;
64966;SDS011;51710;38.732;-121.358;2022-10-30T11:28:35;5.85;;;2.10;;
64966;SDS011;51710;38.732;-121.358;2022-10-30T11:32:08;6.18;;;2.17;;
64966;SDS011;51710;38.732;-121.358;2022-10-30T11:34:39;7.20;;;2.63;;
64966;SDS011;51710;38.732;-121.358;2022-10-30T11:37:00;5.95;;;1.70;;
64966;SDS011;51710;38.732;-121.358;2022-10-30T11:39:29;11.68;;;2.30;;
64966;SDS011;51710;38.732;-121.358;2022-10-30T11:42:20;6.13;;;1.98;;
64966;SDS011;51710;38.732;-121.358;2022-10-30T11:44:49;6.05;;;1.90;;
64966;SDS011;51710;38.732;-121.358;2022-10-30T11:47:18;6.57;;;2.20;;
64966;SDS011;51710;38.732;-121.358;2022-10-30T11:49:55;8.63;;;2.22;;
64966;SDS011;51710;38.732;-121.358;2022-10-30T11:52:24;7.88;;;2.03;;
64966;SDS011;51710;38.732;-121.358;2022-10-30T11:54:53;6.53;;;2.05;;
64966;SDS011;51710;38.732;-121.358;2022-10-30T11:57:20;6.97;;;2.40;;
64966;SDS011;51710;38.732;-121.358;2022-10-30T11:59:59;6.20;;;2.10;;
64966;SDS011;51710;38.732;-121.358;2022-10-30T12:02:29;5.50;;;1.95;;
64966;SDS011;51710;38.732;-121.358;2022-10-30T12:05:28;9.85;;;2.28;;
64966;SDS011;51710;38.732;-121.358;2022-10-30T12:11:16;7.10;;;2.22;;
64966;SDS011;51710;38.732;-121.358;2022-10-30T12:13:24;7.32;;;2.50;;
64966;SDS011;51710;38.732;-121.358;2022-10-30T12:16:03;5.07;;;1.77;;
64966;SDS011;51710;38.732;-121.358;2022-10-30T12:18:41;5.35;;;1.83;;
64966;SDS011;51710;38.732;-121.358;2022-10-30T12:21:20;5.28;;;1.90;;
64966;SDS011;51710;38.732;-121.358;2022-10-30T12:23:54;4.90;;;1.88;;
64966;SDS011;51710;38.732;-121.358;2022-10-30T12:26:25;5.15;;;2.00;;
64966;SDS011;51710;38.732;-121.358;2022-10-30T12:29:03;5.38;;;2.08;;
64966;SDS011;51710;38.732;-121.358;2022-10-30T12:36:39;7.28;;;1.65;;
64966;SDS011;51710;38.732;-121.358;2022-10-30T12:39:15;6.57;;;1.77;;
64966;SDS011;51710;38.732;-121.358;2022-10-30T12:44:33;9.65;;;2.30;;
64966;SDS011;51710;38.732;-121.358;2022-10-30T12:49:42;7.68;;;2.45;;
64966;SDS011;51710;38.732;-121.358;2022-10-30T12:58:07;5.28;;;2.13;;
64966;SDS011;51710;38.732;-121.358;2022-10-30T13:00:54;4.68;;;2.05;;
64966;SDS011;51710;38.732;-121.358;2022-10-30T13:03:30;4.53;;;1.98;;
64966;SDS011;51710;38.732;-121.358;2022-10-30T13:06:06;5.03;;;2.15;;
64966;SDS011;51710;38.732;-121.358;2022-10-30T13:11:11;5.50;;;2.10;;
64966;SDS011;51710;38.732;-121.358;2022-10-30T13:13:40;5.43;;;2.13;;
64966;SDS011;51710;38.732;-121.358;2022-10-30T13:16:27;5.90;;;1.92;;
64966;SDS011;51710;38.732;-121.358;2022-10-30T13:18:55;4.22;;;2.10;;
64966;SDS011;51710;38.732;-121.358;2022-10-30T13:24:04;5.35;;;1.75;;
64966;SDS011;51710;38.732;-121.358;2022-10-30T13:26:46;4.97;;;1.85;;
64966;SDS011;51710;38.732;-121.358;2022-10-30T13:34:33;4.50;;;2.17;;
64966;SDS011;51710;38.732;-121.358;2022-10-30T13:40:12;5.35;;;2.17;;
64966;SDS011;51710;38.732;-121.358;2022-10-30T13:47:57;7.07;;;1.80;;
64966;SDS011;51710;38.732;-121.358;2022-10-30T13:53:29;5.22;;;1.70;;
64966;SDS011;51710;38.732;-121.358;2022-10-30T13:56:00;5.15;;;1.70;;
64966;SDS011;51710;38.732;-121.358;2022-10-30T13:58:35;7.15;;;2.72;;
64966;SDS011;51710;38.732;-121.358;2022-10-30T14:01:17;5.63;;;1.75;;
64966;SDS011;51710;38.732;-121.358;2022-10-30T14:04:09;7.40;;;2.00;;
64966;SDS011;51710;38.732;-121.358;2022-10-30T14:09:32;5.07;;;2.25;;
64966;SDS011;51710;38.732;-121.358;2022-10-30T14:20:41;7.85;;;2.15;;
64966;SDS011;51710;38.732;-121.358;2022-10-30T14:28:36;4.75;;;1.80;;
64966;SDS011;51710;38.732;-121.358;2022-10-30T14:31:05;5.28;;;1.80;;
64966;SDS011;51710;38.732;-121.358;2022-10-30T14:36:21;5.72;;;1.65;;
64966;SDS011;51710;38.732;-121.358;2022-10-30T14:52:31;4.97;;;1.87;;
64966;SDS011;51710;38.732;-121.358;2022-10-30T15:05:42;11.13;;;2.38;;
64966;SDS011;51710;38.732;-121.358;2022-10-30T15:08:22;6.68;;;1.90;;
64966;SDS011;51710;38.732;-121.358;2022-10-30T15:13:32;4.18;;;2.00;;
64966;SDS011;51710;38.732;-121.358;2022-10-30T15:15:59;4.88;;;1.58;;
64966;SDS011;51710;38.732;-121.358;2022-10-30T15:18:29;6.25;;;1.50;;
64966;SDS011;51710;38.732;-121.358;2022-10-30T15:20:56;4.97;;;1.70;;
64966;SDS011;51710;38.732;-121.358;2022-10-30T15:23:29;3.53;;;1.77;;
64966;SDS011;51710;38.732;-121.358;2022-10-30T15:25:58;5.40;;;1.80;;
64966;SDS011;51710;38.732;-121.358;2022-10-30T15:28:41;5.38;;;1.92;;
64966;SDS011;51710;38.732;-121.358;2022-10-30T15:33:43;4.70;;;1.80;;
64966;SDS011;51710;38.732;-121.358;2022-10-30T15:36:23;6.32;;;1.45;;
64966;SDS011;51710;38.732;-121.358;2022-10-30T15:39:12;6.60;;;1.75;;
64966;SDS011;51710;38.732;-121.358;2022-10-30T15:41:51;4.25;;;1.60;;
64966;SDS011;51710;38.732;-121.358;2022-10-30T15:44:27;3.00;;;1.48;;
64966;SDS011;51710;38.732;-121.358;2022-10-30T15:47:00;5.25;;;1.80;;
64966;SDS011;51710;38.732;-121.358;2022-10-30T15:49:35;5.22;;;1.40;;
64966;SDS011;51710;38.732;-121.358;2022-10-30T15:52:26;5.80;;;1.63;;
64966;SDS011;51710;38.732;-121.358;2022-10-30T15:54:58;5.70;;;1.75;;
64966;SDS011;51710;38.732;-121.358;2022-10-30T15:57:28;5.97;;;1.33;;
64966;SDS011;51710;38.732;-121.358;2022-10-30T16:00:03;4.50;;;1.85;;
64966;SDS011;51710;38.732;-121.358;2022-10-30T16:02:32;5.32;;;2.17;;
64966;SDS011;51710;38.732;-121.358;2022-10-30T16:05:00;4.50;;;1.42;;
64966;SDS011;51710;38.732;-121.358;2022-10-30T16:07:27;6.07;;;1.70;;
64966;SDS011;51710;38.732;-121.358;2022-10-30T16:10:03;3.20;;;1.30;;
64966;SDS011;51710;38.732;-121.358;2022-10-30T16:12:34;4.55;;;1.60;;
64966;SDS011;51710;38.732;-121.358;2022-10-30T16:15:04;9.15;;;1.50;;
64966;SDS011;51710;38.732;-121.358;2022-10-30T16:17:33;8.27;;;2.45;;
64966;SDS011;51710;38.732;-121.358;2022-10-30T16:20:00;8.27;;;1.65;;
64966;SDS011;51710;38.732;-121.358;2022-10-30T16:22:32;8.90;;;2.08;;
64966;SDS011;51710;38.732;-121.358;2022-10-30T16:25:06;3.83;;;1.40;;
64966;SDS011;51710;38.732;-121.358;2022-10-30T16:27:43;7.37;;;1.57;;
64966;SDS011;51710;38.732;-121.358;2022-10-30T16:30:13;3.40;;;1.40;;
64966;SDS011;51710;38.732;-121.358;2022-10-30T16:32:41;5.88;;;1.50;;
64966;SDS011;51710;38.732;-121.358;2022-10-30T16:35:16;3.92;;;1.80;;
64966;SDS011;51710;38.732;-121.358;2022-10-30T16:37:46;6.00;;;1.77;;
64966;SDS011;51710;38.732;-121.358;2022-10-30T16:40:17;11.80;;;3.28;;
64966;SDS011;51710;38.732;-121.358;2022-10-30T16:42:49;5.03;;;1.90;;
64966;SDS011;51710;38.732;-121.358;2022-10-30T16:47:56;5.18;;;2.15;;
64966;SDS011;51710;38.732;-121.358;2022-10-30T16:50:34;3.88;;;1.73;;
64966;SDS011;51710;38.732;-121.358;2022-10-30T16:53:05;7.40;;;2.65;;
64966;SDS011;51710;38.732;-121.358;2022-10-30T16:55:32;6.13;;;2.50;;
64966;SDS011;51710;38.732;-121.358;2022-10-30T16:58:02;6.32;;;2.40;;
64966;SDS011;51710;38.732;-121.358;2022-10-30T17:00:32;5.85;;;2.50;;